Details From MUCL - Vilo Acuna Intl
To MWCB - Cayman Brac Gerrard Smith Intl
Flight Number -
Tags Decoded
Created
Modified
Stats Distance 206 nm / 381 km
Max Altitude 0 ft / 0 m
Waypoints 3
Social Downloads 1
Likes 0
Share VATSIM

Download

Looking for another format? Having issues loading an existing format? Contact us
Advertisement - Login to hide

Notes

Decoded

Route

UCL LESOM KODAK

ID Type Via Altitude Latitude Longitude Leg Dist Tot Dist Heading (true) Name
O UCL NDB - 0 ft / 0 m 21.60417˚ -81.52906˚ - 0 nm - -
LESOM FIX - 0 ft / 0 m 20.00000˚ -80.12333˚ 124 nm 124 nm 140° / 141° -
O KODAK FIX - 0 ft / 0 m 19.16500˚ -78.99667˚ 81 nm 205 nm 128° / 128° -

Altitude Profile

Advertisement - Login to hide

Weather


0- 5 10 15 20 25 30 35+ Temperature / ° C

Clouds and Precipitation
Forecast for 2017-12-13 00:00 UTC. Updated 39 minutes ago

Ground ~20,000 ft ~40,000 ft Winds

MUCL

Details ICAO MUCL (CYO)
Name VILO ACUNA INTL
Region Cuba
Timezone America/Havana (UTC-5.0)
Stats Elevation 10 ft / 3 m (AMSL)
Location 21.616452° -81.546000°
Runways 1
Magnetic Variation 5.233° W

METAR

MUCL 121851Z 31006KT 290V350 9000 FEW020 SCT070 21/15 Q1017

Decode

TAF

Not found

Departure Runways

ID Width Length Bearing (true) Bearing (mag) Surface Threshold Offset Overrun Length
12 148 ft / 45 m 9,868 ft / 3,008 m 116.16° 121.39° Asphalt 0 ft / 0 m 197 ft / 60 m
30 148 ft / 45 m 9,868 ft / 3,008 m 296.17° 301.40° Asphalt 0 ft / 0 m 197 ft / 60 m

MWCB

Details ICAO MWCB (CYB)
Name Cayman Brac Gerrard Smith Intl
Region Cayman Islands
Timezone Unknown (UTC+0.0)
Stats Elevation 7 ft / 2 m (AMSL)
Location 19.686981° -79.882789°
Runways 1
Magnetic Variation 5.950° W

METAR

MWCB 121900Z 36009KT 9999 SCT014 BKN030 24/19 Q1015

Decode

TAF

Not found

Destination Runways

ID Width Length Bearing (true) Bearing (mag) Surface Threshold Offset Overrun Length
09 148 ft / 45 m 5,965 ft / 1,818 m 84.73° 90.68° Asphalt 0 ft / 0 m 36 ft / 11 m
27 148 ft / 45 m 5,965 ft / 1,818 m 264.74° 270.69° Asphalt 0 ft / 0 m 26 ft / 8 m